sensor_id;sensor_type;location;lat;lon;timestamp;P1;durP1;ratioP1;P2;durP2;ratioP2
26181;SDS011;13927;51.534;11.866;2022-08-25T00:01:18;12.23;;;10.95;;
26181;SDS011;13927;51.534;11.866;2022-08-25T00:03:47;13.70;;;10.05;;
26181;SDS011;13927;51.534;11.866;2022-08-25T00:06:14;12.85;;;11.40;;
26181;SDS011;13927;51.534;11.866;2022-08-25T00:08:40;12.60;;;11.32;;
26181;SDS011;13927;51.534;11.866;2022-08-25T00:11:09;14.80;;;11.80;;
26181;SDS011;13927;51.534;11.866;2022-08-25T00:13:41;12.10;;;11.00;;
26181;SDS011;13927;51.534;11.866;2022-08-25T00:16:10;13.27;;;11.90;;
26181;SDS011;13927;51.534;11.866;2022-08-25T00:18:38;12.07;;;10.80;;
26181;SDS011;13927;51.534;11.866;2022-08-25T00:21:06;12.95;;;11.70;;
26181;SDS011;13927;51.534;11.866;2022-08-25T00:23:33;12.57;;;11.32;;
26181;SDS011;13927;51.534;11.866;2022-08-25T00:25:58;13.35;;;11.95;;
26181;SDS011;13927;51.534;11.866;2022-08-25T00:28:26;14.93;;;11.13;;
26181;SDS011;13927;51.534;11.866;2022-08-25T00:30:54;13.07;;;11.63;;
26181;SDS011;13927;51.534;11.866;2022-08-25T00:33:19;12.23;;;10.95;;
26181;SDS011;13927;51.534;11.866;2022-08-25T00:35:46;12.55;;;10.95;;
26181;SDS011;13927;51.534;11.866;2022-08-25T00:38:11;13.65;;;12.23;;
26181;SDS011;13927;51.534;11.866;2022-08-25T00:40:41;13.48;;;11.82;;
26181;SDS011;13927;51.534;11.866;2022-08-25T00:43:09;13.10;;;11.40;;
26181;SDS011;13927;51.534;11.866;2022-08-25T00:45:36;16.13;;;13.55;;
26181;SDS011;13927;51.534;11.866;2022-08-25T00:48:02;14.30;;;12.52;;
26181;SDS011;13927;51.534;11.866;2022-08-25T00:50:28;13.95;;;12.45;;
26181;SDS011;13927;51.534;11.866;2022-08-25T00:52:57;13.82;;;11.98;;
26181;SDS011;13927;51.534;11.866;2022-08-25T00:55:27;14.50;;;13.00;;
26181;SDS011;13927;51.534;11.866;2022-08-25T00:58:02;15.07;;;13.20;;
26181;SDS011;13927;51.534;11.866;2022-08-25T01:00:51;15.60;;;13.60;;
26181;SDS011;13927;51.534;11.866;2022-08-25T01:03:20;16.75;;;13.05;;
26181;SDS011;13927;51.534;11.866;2022-08-25T01:05:49;16.92;;;13.55;;
26181;SDS011;13927;51.534;11.866;2022-08-25T01:08:16;13.82;;;12.48;;
26181;SDS011;13927;51.534;11.866;2022-08-25T01:10:45;13.95;;;12.15;;
26181;SDS011;13927;51.534;11.866;2022-08-25T01:13:35;16.05;;;12.35;;
26181;SDS011;13927;51.534;11.866;2022-08-25T01:16:10;14.13;;;12.32;;
26181;SDS011;13927;51.534;11.866;2022-08-25T01:18:44;12.63;;;11.32;;
26181;SDS011;13927;51.534;11.866;2022-08-25T01:21:22;13.18;;;11.43;;
26181;SDS011;13927;51.534;11.866;2022-08-25T01:23:50;14.43;;;12.18;;
26181;SDS011;13927;51.534;11.866;2022-08-25T01:26:20;13.43;;;11.82;;
26181;SDS011;13927;51.534;11.866;2022-08-25T01:28:49;13.45;;;12.05;;
26181;SDS011;13927;51.534;11.866;2022-08-25T01:31:35;13.93;;;11.30;;
26181;SDS011;13927;51.534;11.866;2022-08-25T01:34:03;13.30;;;11.10;;
26181;SDS011;13927;51.534;11.866;2022-08-25T01:36:31;14.40;;;11.82;;
26181;SDS011;13927;51.534;11.866;2022-08-25T01:38:58;13.30;;;11.68;;
26181;SDS011;13927;51.534;11.866;2022-08-25T01:44:30;13.50;;;12.02;;
26181;SDS011;13927;51.534;11.866;2022-08-25T01:47:00;13.77;;;11.90;;
26181;SDS011;13927;51.534;11.866;2022-08-25T01:49:26;16.50;;;11.88;;
26181;SDS011;13927;51.534;11.866;2022-08-25T01:51:56;15.75;;;12.65;;
26181;SDS011;13927;51.534;11.866;2022-08-25T01:54:51;13.98;;;12.07;;
26181;SDS011;13927;51.534;11.866;2022-08-25T01:57:17;13.93;;;12.27;;
26181;SDS011;13927;51.534;11.866;2022-08-25T01:59:43;14.25;;;12.88;;
26181;SDS011;13927;51.534;11.866;2022-08-25T02:02:09;17.73;;;13.18;;
26181;SDS011;13927;51.534;11.866;2022-08-25T02:04:34;15.07;;;13.57;;
26181;SDS011;13927;51.534;11.866;2022-08-25T02:07:02;15.13;;;13.38;;
26181;SDS011;13927;51.534;11.866;2022-08-25T02:09:30;14.55;;;13.15;;
26181;SDS011;13927;51.534;11.866;2022-08-25T02:11:56;13.07;;;11.77;;
26181;SDS011;13927;51.534;11.866;2022-08-25T02:14:23;14.25;;;12.68;;
26181;SDS011;13927;51.534;11.866;2022-08-25T02:16:50;15.07;;;12.52;;
26181;SDS011;13927;51.534;11.866;2022-08-25T02:19:18;14.02;;;11.95;;
26181;SDS011;13927;51.534;11.866;2022-08-25T02:21:46;14.68;;;12.05;;
26181;SDS011;13927;51.534;11.866;2022-08-25T02:24:13;13.88;;;12.32;;
26181;SDS011;13927;51.534;11.866;2022-08-25T02:26:39;13.80;;;12.30;;
26181;SDS011;13927;51.534;11.866;2022-08-25T02:29:05;15.23;;;13.07;;
26181;SDS011;13927;51.534;11.866;2022-08-25T02:31:32;13.25;;;11.88;;
26181;SDS011;13927;51.534;11.866;2022-08-25T02:33:58;14.60;;;12.32;;
26181;SDS011;13927;51.534;11.866;2022-08-25T02:36:25;14.40;;;12.90;;
26181;SDS011;13927;51.534;11.866;2022-08-25T02:38:52;15.70;;;12.77;;
26181;SDS011;13927;51.534;11.866;2022-08-25T02:41:19;15.65;;;12.38;;
26181;SDS011;13927;51.534;11.866;2022-08-25T02:43:47;17.90;;;12.93;;
26181;SDS011;13927;51.534;11.866;2022-08-25T02:46:15;14.38;;;12.82;;
26181;SDS011;13927;51.534;11.866;2022-08-25T02:48:48;13.90;;;12.50;;
26181;SDS011;13927;51.534;11.866;2022-08-25T02:51:16;14.40;;;12.90;;
26181;SDS011;13927;51.534;11.866;2022-08-25T02:53:44;14.52;;;12.93;;
26181;SDS011;13927;51.534;11.866;2022-08-25T02:56:11;16.58;;;13.77;;
26181;SDS011;13927;51.534;11.866;2022-08-25T02:58:39;16.60;;;13.70;;
26181;SDS011;13927;51.534;11.866;2022-08-25T03:01:05;17.38;;;14.15;;
26181;SDS011;13927;51.534;11.866;2022-08-25T03:03:36;15.57;;;12.73;;
26181;SDS011;13927;51.534;11.866;2022-08-25T03:06:09;14.35;;;12.80;;
26181;SDS011;13927;51.534;11.866;2022-08-25T03:08:41;15.55;;;13.23;;
26181;SDS011;13927;51.534;11.866;2022-08-25T03:11:08;14.43;;;13.02;;
26181;SDS011;13927;51.534;11.866;2022-08-25T03:13:35;14.55;;;13.05;;
26181;SDS011;13927;51.534;11.866;2022-08-25T03:16:02;16.55;;;14.85;;
26181;SDS011;13927;51.534;11.866;2022-08-25T03:18:30;18.67;;;13.07;;
26181;SDS011;13927;51.534;11.866;2022-08-25T03:20:56;15.65;;;12.73;;
26181;SDS011;13927;51.534;11.866;2022-08-25T03:23:22;15.07;;;13.48;;
26181;SDS011;13927;51.534;11.866;2022-08-25T03:25:48;16.45;;;14.50;;
26181;SDS011;13927;51.534;11.866;2022-08-25T03:28:33;15.75;;;12.93;;
26181;SDS011;13927;51.534;11.866;2022-08-25T03:31:00;18.58;;;14.93;;
26181;SDS011;13927;51.534;11.866;2022-08-25T03:33:29;15.77;;;14.18;;
26181;SDS011;13927;51.534;11.866;2022-08-25T03:35:55;15.38;;;13.88;;
26181;SDS011;13927;51.534;11.866;2022-08-25T03:38:22;17.75;;;14.40;;
26181;SDS011;13927;51.534;11.866;2022-08-25T03:40:49;18.27;;;15.38;;
26181;SDS011;13927;51.534;11.866;2022-08-25T03:43:16;19.23;;;15.10;;
26181;SDS011;13927;51.534;11.866;2022-08-25T03:45:42;15.80;;;14.10;;
26181;SDS011;13927;51.534;11.866;2022-08-25T03:48:09;15.38;;;13.77;;
26181;SDS011;13927;51.534;11.866;2022-08-25T03:50:36;17.17;;;14.05;;
26181;SDS011;13927;51.534;11.866;2022-08-25T03:53:12;17.30;;;13.50;;
26181;SDS011;13927;51.534;11.866;2022-08-25T03:55:39;17.13;;;14.52;;
26181;SDS011;13927;51.534;11.866;2022-08-25T03:58:05;17.95;;;14.27;;
26181;SDS011;13927;51.534;11.866;2022-08-25T04:00:30;16.42;;;13.65;;
26181;SDS011;13927;51.534;11.866;2022-08-25T04:02:56;17.92;;;14.52;;
26181;SDS011;13927;51.534;11.866;2022-08-25T04:05:22;16.90;;;14.50;;
26181;SDS011;13927;51.534;11.866;2022-08-25T04:07:48;17.38;;;15.45;;
26181;SDS011;13927;51.534;11.866;2022-08-25T04:10:13;15.38;;;13.77;;
26181;SDS011;13927;51.534;11.866;2022-08-25T04:12:39;18.02;;;15.48;;
26181;SDS011;13927;51.534;11.866;2022-08-25T04:15:06;17.85;;;15.20;;
26181;SDS011;13927;51.534;11.866;2022-08-25T04:17:37;16.63;;;14.88;;
26181;SDS011;13927;51.534;11.866;2022-08-25T04:20:05;17.98;;;15.30;;
26181;SDS011;13927;51.534;11.866;2022-08-25T04:22:33;18.67;;;15.32;;
26181;SDS011;13927;51.534;11.866;2022-08-25T04:25:00;20.50;;;15.73;;
26181;SDS011;13927;51.534;11.866;2022-08-25T04:27:27;17.10;;;15.05;;
26181;SDS011;13927;51.534;11.866;2022-08-25T04:29:53;18.15;;;15.93;;
26181;SDS011;13927;51.534;11.866;2022-08-25T04:32:19;19.60;;;15.30;;
26181;SDS011;13927;51.534;11.866;2022-08-25T04:34:44;16.95;;;14.00;;
26181;SDS011;13927;51.534;11.866;2022-08-25T04:37:10;19.98;;;14.40;;
26181;SDS011;13927;51.534;11.866;2022-08-25T04:39:36;20.88;;;14.68;;
26181;SDS011;13927;51.534;11.866;2022-08-25T04:42:02;14.68;;;12.85;;
26181;SDS011;13927;51.534;11.866;2022-08-25T04:44:28;16.17;;;14.48;;
26181;SDS011;13927;51.534;11.866;2022-08-25T04:46:54;19.25;;;17.15;;
26181;SDS011;13927;51.534;11.866;2022-08-25T04:49:21;21.88;;;17.73;;
26181;SDS011;13927;51.534;11.866;2022-08-25T04:51:47;22.98;;;15.35;;
26181;SDS011;13927;51.534;11.866;2022-08-25T04:54:13;19.42;;;15.40;;
26181;SDS011;13927;51.534;11.866;2022-08-25T04:56:45;21.35;;;14.45;;
26181;SDS011;13927;51.534;11.866;2022-08-25T04:59:14;18.70;;;15.70;;
26181;SDS011;13927;51.534;11.866;2022-08-25T05:01:41;17.67;;;14.38;;
26181;SDS011;13927;51.534;11.866;2022-08-25T05:04:10;20.40;;;16.13;;
26181;SDS011;13927;51.534;11.866;2022-08-25T05:06:39;17.70;;;15.38;;
26181;SDS011;13927;51.534;11.866;2022-08-25T05:09:05;22.52;;;16.52;;
26181;SDS011;13927;51.534;11.866;2022-08-25T05:11:31;19.63;;;16.33;;
26181;SDS011;13927;51.534;11.866;2022-08-25T05:13:58;18.73;;;16.63;;
26181;SDS011;13927;51.534;11.866;2022-08-25T05:16:26;21.50;;;16.30;;
26181;SDS011;13927;51.534;11.866;2022-08-25T05:18:58;17.55;;;14.70;;
26181;SDS011;13927;51.534;11.866;2022-08-25T05:21:27;19.45;;;16.77;;
26181;SDS011;13927;51.534;11.866;2022-08-25T05:23:56;19.75;;;17.02;;
26181;SDS011;13927;51.534;11.866;2022-08-25T05:26:24;19.02;;;16.75;;
26181;SDS011;13927;51.534;11.866;2022-08-25T05:28:52;24.88;;;18.20;;
26181;SDS011;13927;51.534;11.866;2022-08-25T05:31:20;23.52;;;18.17;;
26181;SDS011;13927;51.534;11.866;2022-08-25T05:33:48;23.65;;;19.08;;
26181;SDS011;13927;51.534;11.866;2022-08-25T05:36:15;22.38;;;19.50;;
26181;SDS011;13927;51.534;11.866;2022-08-25T05:38:42;23.15;;;19.33;;
26181;SDS011;13927;51.534;11.866;2022-08-25T05:41:09;22.70;;;18.48;;
26181;SDS011;13927;51.534;11.866;2022-08-25T05:43:40;21.52;;;19.25;;
26181;SDS011;13927;51.534;11.866;2022-08-25T05:46:07;25.33;;;19.38;;
26181;SDS011;13927;51.534;11.866;2022-08-25T05:48:34;22.50;;;19.83;;
26181;SDS011;13927;51.534;11.866;2022-08-25T05:51:00;22.52;;;19.45;;
26181;SDS011;13927;51.534;11.866;2022-08-25T05:53:29;21.05;;;18.92;;
26181;SDS011;13927;51.534;11.866;2022-08-25T05:55:56;21.63;;;19.42;;
26181;SDS011;13927;51.534;11.866;2022-08-25T05:58:23;25.33;;;19.13;;
26181;SDS011;13927;51.534;11.866;2022-08-25T06:00:51;28.73;;;20.25;;
26181;SDS011;13927;51.534;11.866;2022-08-25T06:03:18;21.67;;;18.42;;
26181;SDS011;13927;51.534;11.866;2022-08-25T06:05:44;21.67;;;19.17;;
26181;SDS011;13927;51.534;11.866;2022-08-25T06:08:10;21.98;;;19.77;;
26181;SDS011;13927;51.534;11.866;2022-08-25T06:10:35;25.38;;;19.42;;
26181;SDS011;13927;51.534;11.866;2022-08-25T06:13:02;21.02;;;18.35;;
26181;SDS011;13927;51.534;11.866;2022-08-25T06:15:28;22.08;;;18.52;;
26181;SDS011;13927;51.534;11.866;2022-08-25T06:17:55;20.50;;;17.95;;
26181;SDS011;13927;51.534;11.866;2022-08-25T06:20:26;22.70;;;17.77;;
26181;SDS011;13927;51.534;11.866;2022-08-25T06:22:54;21.23;;;16.60;;
26181;SDS011;13927;51.534;11.866;2022-08-25T06:25:22;19.65;;;17.55;;
26181;SDS011;13927;51.534;11.866;2022-08-25T06:27:50;19.67;;;17.27;;
26181;SDS011;13927;51.534;11.866;2022-08-25T06:30:18;21.52;;;16.55;;
26181;SDS011;13927;51.534;11.866;2022-08-25T06:32:46;17.95;;;16.00;;
26181;SDS011;13927;51.534;11.866;2022-08-25T06:35:14;19.35;;;16.88;;
26181;SDS011;13927;51.534;11.866;2022-08-25T06:37:43;18.33;;;16.10;;
26181;SDS011;13927;51.534;11.866;2022-08-25T06:40:10;18.33;;;16.42;;
26181;SDS011;13927;51.534;11.866;2022-08-25T06:42:37;19.27;;;16.42;;
26181;SDS011;13927;51.534;11.866;2022-08-25T06:45:03;18.23;;;15.45;;
26181;SDS011;13927;51.534;11.866;2022-08-25T06:47:30;17.80;;;15.90;;
26181;SDS011;13927;51.534;11.866;2022-08-25T06:49:56;17.02;;;15.25;;
26181;SDS011;13927;51.534;11.866;2022-08-25T06:52:22;18.85;;;15.88;;
26181;SDS011;13927;51.534;11.866;2022-08-25T06:54:48;18.92;;;16.33;;
26181;SDS011;13927;51.534;11.866;2022-08-25T06:57:13;19.63;;;15.77;;
26181;SDS011;13927;51.534;11.866;2022-08-25T06:59:39;18.95;;;15.90;;
26181;SDS011;13927;51.534;11.866;2022-08-25T07:02:05;17.38;;;15.57;;
26181;SDS011;13927;51.534;11.866;2022-08-25T07:04:32;20.15;;;15.38;;
26181;SDS011;13927;51.534;11.866;2022-08-25T07:06:59;17.67;;;14.98;;
26181;SDS011;13927;51.534;11.866;2022-08-25T07:09:25;18.02;;;15.25;;
26181;SDS011;13927;51.534;11.866;2022-08-25T07:11:50;18.85;;;14.10;;
26181;SDS011;13927;51.534;11.866;2022-08-25T07:14:18;20.00;;;15.98;;
26181;SDS011;13927;51.534;11.866;2022-08-25T07:16:45;17.33;;;15.40;;
26181;SDS011;13927;51.534;11.866;2022-08-25T07:19:11;20.15;;;16.25;;
26181;SDS011;13927;51.534;11.866;2022-08-25T07:21:38;19.98;;;15.90;;
26181;SDS011;13927;51.534;11.866;2022-08-25T07:24:07;22.65;;;16.05;;
26181;SDS011;13927;51.534;11.866;2022-08-25T07:26:37;19.98;;;15.45;;
26181;SDS011;13927;51.534;11.866;2022-08-25T07:29:10;17.90;;;14.98;;
26181;SDS011;13927;51.534;11.866;2022-08-25T07:31:42;19.70;;;15.45;;
26181;SDS011;13927;51.534;11.866;2022-08-25T07:34:08;17.42;;;14.27;;
26181;SDS011;13927;51.534;11.866;2022-08-25T07:36:53;20.42;;;14.35;;
26181;SDS011;13927;51.534;11.866;2022-08-25T07:39:20;19.15;;;15.40;;
26181;SDS011;13927;51.534;11.866;2022-08-25T07:41:46;16.40;;;14.07;;
26181;SDS011;13927;51.534;11.866;2022-08-25T07:44:12;17.02;;;15.20;;
26181;SDS011;13927;51.534;11.866;2022-08-25T07:46:38;21.15;;;15.65;;
26181;SDS011;13927;51.534;11.866;2022-08-25T07:49:06;20.52;;;15.45;;
26181;SDS011;13927;51.534;11.866;2022-08-25T07:51:32;23.05;;;15.63;;
26181;SDS011;13927;51.534;11.866;2022-08-25T07:53:58;17.65;;;15.38;;
26181;SDS011;13927;51.534;11.866;2022-08-25T07:56:25;24.65;;;15.52;;
26181;SDS011;13927;51.534;11.866;2022-08-25T07:58:51;17.95;;;16.08;;
26181;SDS011;13927;51.534;11.866;2022-08-25T08:01:22;18.90;;;16.70;;
26181;SDS011;13927;51.534;11.866;2022-08-25T08:03:48;23.00;;;15.57;;
26181;SDS011;13927;51.534;11.866;2022-08-25T08:06:15;19.95;;;14.82;;
26181;SDS011;13927;51.534;11.866;2022-08-25T08:08:46;16.73;;;14.90;;
26181;SDS011;13927;51.534;11.866;2022-08-25T08:11:18;16.00;;;14.25;;
26181;SDS011;13927;51.534;11.866;2022-08-25T08:13:51;17.45;;;15.40;;
26181;SDS011;13927;51.534;11.866;2022-08-25T08:16:19;16.05;;;12.73;;
26181;SDS011;13927;51.534;11.866;2022-08-25T08:18:47;14.60;;;13.10;;
26181;SDS011;13927;51.534;11.866;2022-08-25T08:21:14;21.10;;;14.05;;
26181;SDS011;13927;51.534;11.866;2022-08-25T08:23:52;18.65;;;13.90;;
26181;SDS011;13927;51.534;11.866;2022-08-25T08:26:20;21.92;;;14.00;;
26181;SDS011;13927;51.534;11.866;2022-08-25T08:28:47;17.65;;;13.32;;
26181;SDS011;13927;51.534;11.866;2022-08-25T08:31:15;17.50;;;12.38;;
26181;SDS011;13927;51.534;11.866;2022-08-25T08:33:43;16.67;;;12.60;;
26181;SDS011;13927;51.534;11.866;2022-08-25T08:36:11;17.50;;;11.75;;
26181;SDS011;13927;51.534;11.866;2022-08-25T08:38:38;12.68;;;10.88;;
26181;SDS011;13927;51.534;11.866;2022-08-25T08:47:24;19.50;;;12.35;;
26181;SDS011;13927;51.534;11.866;2022-08-25T08:50:42;16.25;;;11.88;;
26181;SDS011;13927;51.534;11.866;2022-08-25T08:53:43;15.05;;;12.30;;
26181;SDS011;13927;51.534;11.866;2022-08-25T08:56:30;17.73;;;11.85;;
26181;SDS011;13927;51.534;11.866;2022-08-25T08:59:05;19.58;;;11.80;;
26181;SDS011;13927;51.534;11.866;2022-08-25T09:04:13;15.90;;;12.65;;
26181;SDS011;13927;51.534;11.866;2022-08-25T09:06:45;14.07;;;11.00;;
26181;SDS011;13927;51.534;11.866;2022-08-25T09:09:17;18.75;;;13.32;;
26181;SDS011;13927;51.534;11.866;2022-08-25T09:12:08;16.15;;;11.45;;
26181;SDS011;13927;51.534;11.866;2022-08-25T09:28:51;17.02;;;13.43;;
26181;SDS011;13927;51.534;11.866;2022-08-25T09:31:34;15.90;;;11.73;;
26181;SDS011;13927;51.534;11.866;2022-08-25T09:34:04;14.98;;;12.50;;
26181;SDS011;13927;51.534;11.866;2022-08-25T09:39:01;17.67;;;11.13;;
26181;SDS011;13927;51.534;11.866;2022-08-25T09:41:45;13.88;;;11.07;;
26181;SDS011;13927;51.534;11.866;2022-08-25T09:47:22;17.15;;;11.07;;
26181;SDS011;13927;51.534;11.866;2022-08-25T09:55:43;16.55;;;11.20;;
26181;SDS011;13927;51.534;11.866;2022-08-25T09:57:51;15.43;;;11.30;;
26181;SDS011;13927;51.534;11.866;2022-08-25T10:00:24;17.10;;;11.32;;
26181;SDS011;13927;51.534;11.866;2022-08-25T10:03:06;13.18;;;10.60;;
26181;SDS011;13927;51.534;11.866;2022-08-25T10:05:37;16.95;;;11.48;;
26181;SDS011;13927;51.534;11.866;2022-08-25T10:08:26;15.80;;;9.75;;
26181;SDS011;13927;51.534;11.866;2022-08-25T10:11:02;14.30;;;9.88;;
26181;SDS011;13927;51.534;11.866;2022-08-25T10:13:40;16.83;;;10.75;;
26181;SDS011;13927;51.534;11.866;2022-08-25T10:16:11;15.63;;;10.80;;
26181;SDS011;13927;51.534;11.866;2022-08-25T10:19:02;15.82;;;11.35;;
26181;SDS011;13927;51.534;11.866;2022-08-25T10:21:45;14.07;;;10.20;;
26181;SDS011;13927;51.534;11.866;2022-08-25T10:24:48;14.57;;;9.90;;
26181;SDS011;13927;51.534;11.866;2022-08-25T10:27:31;18.70;;;10.80;;
26181;SDS011;13927;51.534;11.866;2022-08-25T10:36:00;15.13;;;10.20;;
26181;SDS011;13927;51.534;11.866;2022-08-25T10:38:59;18.42;;;10.65;;
26181;SDS011;13927;51.534;11.866;2022-08-25T10:41:49;19.80;;;12.48;;
26181;SDS011;13927;51.534;11.866;2022-08-25T10:57:09;16.92;;;11.45;;
26181;SDS011;13927;51.534;11.866;2022-08-25T11:08:39;17.83;;;10.63;;
26181;SDS011;13927;51.534;11.866;2022-08-25T11:14:18;14.18;;;10.25;;
26181;SDS011;13927;51.534;11.866;2022-08-25T11:19:40;20.20;;;10.52;;
26181;SDS011;13927;51.534;11.866;2022-08-25T11:25:27;19.08;;;10.27;;
26181;SDS011;13927;51.534;11.866;2022-08-25T11:28:06;18.13;;;9.73;;
26181;SDS011;13927;51.534;11.866;2022-08-25T11:30:37;17.70;;;10.48;;
26181;SDS011;13927;51.534;11.866;2022-08-25T11:33:04;14.65;;;9.00;;
26181;SDS011;13927;51.534;11.866;2022-08-25T11:35:42;17.52;;;9.95;;
26181;SDS011;13927;51.534;11.866;2022-08-25T11:38:34;18.05;;;10.05;;
26181;SDS011;13927;51.534;11.866;2022-08-25T11:50:02;14.45;;;9.70;;
26181;SDS011;13927;51.534;11.866;2022-08-25T11:54:57;18.38;;;9.70;;
26181;SDS011;13927;51.534;11.866;2022-08-25T11:57:41;20.48;;;9.85;;
26181;SDS011;13927;51.534;11.866;2022-08-25T12:00:15;17.45;;;9.13;;
26181;SDS011;13927;51.534;11.866;2022-08-25T12:04:09;15.93;;;8.88;;
26181;SDS011;13927;51.534;11.866;2022-08-25T12:08:46;16.38;;;8.98;;
26181;SDS011;13927;51.534;11.866;2022-08-25T12:11:57;15.20;;;9.68;;
26181;SDS011;13927;51.534;11.866;2022-08-25T12:19:23;16.23;;;9.15;;
26181;SDS011;13927;51.534;11.866;2022-08-25T12:27:31;21.17;;;8.50;;
26181;SDS011;13927;51.534;11.866;2022-08-25T12:33:07;19.15;;;9.25;;
26181;SDS011;13927;51.534;11.866;2022-08-25T12:38:55;16.60;;;9.18;;
26181;SDS011;13927;51.534;11.866;2022-08-25T12:41:54;19.05;;;8.55;;
26181;SDS011;13927;51.534;11.866;2022-08-25T12:44:39;23.20;;;9.30;;
26181;SDS011;13927;51.534;11.866;2022-08-25T12:47:23;21.52;;;9.02;;
26181;SDS011;13927;51.534;11.866;2022-08-25T12:55:58;21.30;;;9.18;;
26181;SDS011;13927;51.534;11.866;2022-08-25T12:58:32;20.38;;;9.02;;
26181;SDS011;13927;51.534;11.866;2022-08-25T13:01:20;25.95;;;9.18;;
26181;SDS011;13927;51.534;11.866;2022-08-25T13:07:06;18.15;;;8.13;;
26181;SDS011;13927;51.534;11.866;2022-08-25T13:10:38;15.27;;;7.97;;
26181;SDS011;13927;51.534;11.866;2022-08-25T13:13:12;21.85;;;9.90;;
26181;SDS011;13927;51.534;11.866;2022-08-25T13:16:04;18.50;;;9.75;;
26181;SDS011;13927;51.534;11.866;2022-08-25T13:18:34;18.80;;;9.48;;
26181;SDS011;13927;51.534;11.866;2022-08-25T13:23:55;21.45;;;9.30;;
26181;SDS011;13927;51.534;11.866;2022-08-25T13:29:35;14.32;;;8.95;;
26181;SDS011;13927;51.534;11.866;2022-08-25T13:34:24;22.05;;;9.25;;
26181;SDS011;13927;51.534;11.866;2022-08-25T13:36:54;20.70;;;8.87;;
26181;SDS011;13927;51.534;11.866;2022-08-25T13:39:38;15.23;;;8.82;;
26181;SDS011;13927;51.534;11.866;2022-08-25T13:42:06;17.77;;;9.13;;
26181;SDS011;13927;51.534;11.866;2022-08-25T13:44:39;18.33;;;8.10;;
26181;SDS011;13927;51.534;11.866;2022-08-25T13:49:43;14.80;;;9.27;;
26181;SDS011;13927;51.534;11.866;2022-08-25T13:52:25;21.65;;;9.27;;
26181;SDS011;13927;51.534;11.866;2022-08-25T13:54:56;18.80;;;8.77;;
26181;SDS011;13927;51.534;11.866;2022-08-25T13:57:27;15.57;;;8.93;;
26181;SDS011;13927;51.534;11.866;2022-08-25T13:59:55;17.40;;;8.20;;
26181;SDS011;13927;51.534;11.866;2022-08-25T14:02:39;16.67;;;9.02;;
26181;SDS011;13927;51.534;11.866;2022-08-25T14:05:15;19.67;;;8.55;;
26181;SDS011;13927;51.534;11.866;2022-08-25T14:07:56;15.88;;;8.77;;
26181;SDS011;13927;51.534;11.866;2022-08-25T14:10:33;17.38;;;9.13;;
26181;SDS011;13927;51.534;11.866;2022-08-25T14:13:07;18.08;;;8.30;;
26181;SDS011;13927;51.534;11.866;2022-08-25T14:15:39;20.75;;;8.82;;
26181;SDS011;13927;51.534;11.866;2022-08-25T14:18:09;17.77;;;8.77;;
26181;SDS011;13927;51.534;11.866;2022-08-25T14:20:44;17.25;;;8.23;;
26181;SDS011;13927;51.534;11.866;2022-08-25T14:23:15;16.05;;;8.45;;
26181;SDS011;13927;51.534;11.866;2022-08-25T14:25:44;18.88;;;8.80;;
26181;SDS011;13927;51.534;11.866;2022-08-25T14:28:14;17.23;;;7.85;;
26181;SDS011;13927;51.534;11.866;2022-08-25T14:30:53;15.77;;;7.80;;
26181;SDS011;13927;51.534;11.866;2022-08-25T14:33:29;15.05;;;8.57;;
26181;SDS011;13927;51.534;11.866;2022-08-25T14:36:08;18.00;;;9.05;;
26181;SDS011;13927;51.534;11.866;2022-08-25T14:38:34;20.17;;;8.63;;
26181;SDS011;13927;51.534;11.866;2022-08-25T14:41:03;17.95;;;8.13;;
26181;SDS011;13927;51.534;11.866;2022-08-25T14:43:30;16.00;;;8.30;;
26181;SDS011;13927;51.534;11.866;2022-08-25T14:45:57;17.80;;;8.98;;
26181;SDS011;13927;51.534;11.866;2022-08-25T14:48:29;18.48;;;7.32;;
26181;SDS011;13927;51.534;11.866;2022-08-25T14:51:02;16.80;;;7.93;;
26181;SDS011;13927;51.534;11.866;2022-08-25T14:53:30;18.45;;;8.27;;
26181;SDS011;13927;51.534;11.866;2022-08-25T14:55:56;18.67;;;8.15;;
26181;SDS011;13927;51.534;11.866;2022-08-25T14:58:22;21.30;;;8.95;;
26181;SDS011;13927;51.534;11.866;2022-08-25T15:00:48;17.58;;;8.13;;
26181;SDS011;13927;51.534;11.866;2022-08-25T15:03:16;17.65;;;7.55;;
26181;SDS011;13927;51.534;11.866;2022-08-25T15:05:48;26.15;;;9.38;;
26181;SDS011;13927;51.534;11.866;2022-08-25T15:08:14;18.15;;;8.38;;
26181;SDS011;13927;51.534;11.866;2022-08-25T15:10:58;22.10;;;8.85;;
26181;SDS011;13927;51.534;11.866;2022-08-25T15:13:23;21.95;;;8.15;;
26181;SDS011;13927;51.534;11.866;2022-08-25T15:15:51;21.15;;;8.85;;
26181;SDS011;13927;51.534;11.866;2022-08-25T15:18:17;20.88;;;9.50;;
26181;SDS011;13927;51.534;11.866;2022-08-25T15:20:44;20.25;;;8.73;;
26181;SDS011;13927;51.534;11.866;2022-08-25T15:23:09;18.40;;;8.45;;
26181;SDS011;13927;51.534;11.866;2022-08-25T15:25:35;22.75;;;8.73;;
26181;SDS011;13927;51.534;11.866;2022-08-25T15:28:04;24.65;;;8.68;;
26181;SDS011;13927;51.534;11.866;2022-08-25T15:30:32;18.88;;;7.80;;
26181;SDS011;13927;51.534;11.866;2022-08-25T15:33:00;20.80;;;9.07;;
26181;SDS011;13927;51.534;11.866;2022-08-25T15:35:25;18.08;;;8.45;;
26181;SDS011;13927;51.534;11.866;2022-08-25T15:37:52;22.52;;;8.38;;
26181;SDS011;13927;51.534;11.866;2022-08-25T15:40:18;16.10;;;7.90;;
26181;SDS011;13927;51.534;11.866;2022-08-25T15:42:44;19.45;;;8.45;;
26181;SDS011;13927;51.534;11.866;2022-08-25T15:45:10;16.67;;;8.32;;
26181;SDS011;13927;51.534;11.866;2022-08-25T15:47:37;22.55;;;8.18;;
26181;SDS011;13927;51.534;11.866;2022-08-25T15:50:05;19.23;;;8.43;;
26181;SDS011;13927;51.534;11.866;2022-08-25T15:52:39;18.08;;;8.38;;
26181;SDS011;13927;51.534;11.866;2022-08-25T15:55:06;16.90;;;8.48;;
26181;SDS011;13927;51.534;11.866;2022-08-25T15:57:34;15.35;;;8.90;;
26181;SDS011;13927;51.534;11.866;2022-08-25T16:00:00;19.02;;;8.77;;
26181;SDS011;13927;51.534;11.866;2022-08-25T16:02:29;21.95;;;8.95;;
26181;SDS011;13927;51.534;11.866;2022-08-25T16:04:57;21.45;;;8.90;;
26181;SDS011;13927;51.534;11.866;2022-08-25T16:07:22;18.65;;;8.00;;
26181;SDS011;13927;51.534;11.866;2022-08-25T16:09:48;19.80;;;8.70;;
26181;SDS011;13927;51.534;11.866;2022-08-25T16:12:14;20.25;;;8.90;;
26181;SDS011;13927;51.534;11.866;2022-08-25T16:14:40;17.15;;;8.20;;
26181;SDS011;13927;51.534;11.866;2022-08-25T16:17:06;16.95;;;8.38;;
26181;SDS011;13927;51.534;11.866;2022-08-25T16:19:32;17.90;;;8.48;;
26181;SDS011;13927;51.534;11.866;2022-08-25T16:21:58;22.10;;;8.93;;
26181;SDS011;13927;51.534;11.866;2022-08-25T16:24:24;18.63;;;8.57;;
26181;SDS011;13927;51.534;11.866;2022-08-25T16:26:50;17.90;;;8.68;;
26181;SDS011;13927;51.534;11.866;2022-08-25T16:29:16;17.63;;;7.72;;
26181;SDS011;13927;51.534;11.866;2022-08-25T16:31:43;13.82;;;8.13;;
26181;SDS011;13927;51.534;11.866;2022-08-25T16:34:09;14.45;;;8.27;;
26181;SDS011;13927;51.534;11.866;2022-08-25T16:36:36;18.95;;;8.82;;
26181;SDS011;13927;51.534;11.866;2022-08-25T16:39:03;17.45;;;9.05;;